Terminal Aerodrome Forecast
Issued by NWS Rapid City, SD

Home | Current Version | Previous Version | Graphics & Text | Print | Product List | Glossary On
Versions: 1 2 3 4 5 6 7 8 9 10 11 12 13 14 15 16 17 18 19
000
FTUS43 KUNR 140520
TAFRAP
TAF
KRAP 140520Z 1406/1506 27005KT P6SM FEW120
     FM141200 34015G25KT P6SM BKN100
     FM141500 34028G40KT P6SM BKN025 OVC060
     FM141900 34028G40KT P6SM SCT030 BKN100=

USA.gov is the U.S. government's official web portal to all federal, state and local government web resources and services.